createdAt,value
2022-09-20T00:01:12.360Z,57.45
2022-09-20T00:03:42.108Z,57.64
2022-09-20T00:06:10.884Z,57.56
2022-09-20T00:08:38.646Z,57.39
2022-09-20T00:11:10.949Z,57.46
2022-09-20T00:13:39.249Z,57.33
2022-09-20T00:16:11.661Z,56.68
2022-09-20T00:18:39.787Z,56.77
2022-09-20T00:21:06.960Z,57.58
2022-09-20T00:23:34.180Z,57.08
2022-09-20T00:26:04.734Z,57.39
2022-09-20T00:28:32.429Z,56.96
2022-09-20T00:30:58.951Z,57.17
2022-09-20T00:33:46.521Z,57.07
2022-09-20T00:36:13.224Z,57.35
2022-09-20T00:38:39.781Z,57.57
2022-09-20T00:41:06.553Z,57.40
2022-09-20T00:43:38.849Z,57.74
2022-09-20T00:46:15.736Z,57.09
2022-09-20T00:48:43.191Z,57.31
2022-09-20T00:51:13.445Z,56.84
2022-09-20T00:53:47.773Z,57.15
2022-09-20T00:56:24.968Z,57.47
2022-09-20T00:59:22.719Z,57.50
2022-09-20T01:01:56.001Z,57.25
2022-09-20T01:04:27.496Z,56.98
2022-09-20T01:06:57.787Z,57.41
2022-09-20T01:09:24.367Z,57.69
2022-09-20T01:11:53.156Z,57.72
2022-09-20T01:14:20.130Z,56.95
2022-09-20T01:16:46.818Z,57.51
2022-09-20T01:19:48.699Z,57.67
2022-09-20T01:22:46.608Z,57.65
2022-09-20T01:25:31.748Z,57.72
2022-09-20T01:27:58.622Z,57.63
2022-09-20T01:30:30.934Z,57.73
2022-09-20T01:33:26.305Z,57.19
2022-09-20T01:35:54.577Z,57.62
2022-09-20T01:38:21.025Z,57.61
2022-09-20T01:40:47.613Z,57.13
2022-09-20T01:43:34.210Z,57.21
2022-09-20T01:46:16.697Z,57.59
2022-09-20T01:48:43.303Z,57.78
2022-09-20T01:51:50.470Z,57.18
2022-09-20T01:54:58.066Z,58.00
2022-09-20T01:57:48.080Z,57.81
2022-09-20T02:00:20.365Z,57.59
2022-09-20T02:03:08.255Z,57.43
2022-09-20T02:06:25.633Z,57.81
2022-09-20T02:09:22.896Z,57.51
2022-09-20T02:12:15.577Z,57.14
2022-09-20T02:15:06.350Z,57.51
2022-09-20T02:17:54.415Z,57.71
2022-09-20T02:20:30.702Z,57.90
2022-09-20T02:23:22.032Z,57.92
2022-09-20T02:26:22.066Z,57.57
2022-09-20T02:29:02.440Z,57.32
2022-09-20T02:31:51.919Z,57.89
2022-09-20T02:34:30.286Z,57.54
2022-09-20T02:37:30.753Z,57.32
2022-09-20T02:40:15.664Z,57.69
2022-09-20T02:43:10.852Z,57.26
2022-09-20T02:45:53.557Z,57.56
2022-09-20T02:48:29.849Z,57.10
2022-09-20T02:51:07.027Z,56.90
2022-09-20T02:53:55.278Z,57.30
2022-09-20T02:57:03.659Z,57.16
2022-09-20T02:59:44.437Z,57.33
2022-09-20T03:02:27.350Z,57.65
2022-09-20T03:05:11.388Z,56.96
2022-09-20T03:08:14.256Z,57.56
2022-09-20T03:11:02.372Z,56.84
2022-09-20T03:13:57.782Z,57.32
2022-09-20T03:16:57.124Z,57.34
2022-09-20T03:20:07.462Z,57.52
2022-09-20T03:23:17.309Z,56.92
2022-09-20T03:25:55.291Z,57.55
2022-09-20T03:28:33.338Z,57.12
2022-09-20T03:31:14.185Z,56.85
2022-09-20T03:33:49.570Z,57.39
2022-09-20T03:36:47.112Z,57.17
2022-09-20T03:39:48.878Z,57.10
2022-09-20T03:42:19.664Z,57.59
2022-09-20T03:45:08.121Z,57.40
2022-09-20T03:47:45.243Z,56.96
2022-09-20T03:50:14.688Z,57.26
2022-09-20T03:52:43.801Z,56.91
2022-09-20T03:55:16.323Z,56.88
2022-09-20T03:58:16.074Z,56.69
2022-09-20T04:00:45.530Z,57.56
2022-09-20T04:03:47.703Z,57.67
2022-09-20T04:06:41.566Z,57.45
2022-09-20T04:09:17.100Z,57.03
2022-09-20T04:12:08.948Z,56.90
2022-09-20T04:15:04.678Z,56.76
2022-09-20T04:17:37.200Z,57.55
2022-09-20T04:20:15.630Z,56.91
2022-09-20T04:22:44.677Z,57.49
2022-09-20T04:25:29.962Z,57.59
2022-09-20T04:28:33.709Z,57.68
2022-09-20T04:31:20.133Z,57.46
2022-09-20T04:33:50.051Z,57.50
2022-09-20T04:36:48.071Z,56.93
2022-09-20T04:39:42.427Z,57.01
2022-09-20T04:42:36.663Z,57.16
2022-09-20T04:45:15.764Z,57.06
2022-09-20T04:47:45.226Z,57.00
2022-09-20T04:50:33.461Z,56.97
2022-09-20T04:53:29.269Z,57.18
2022-09-20T04:56:11.766Z,57.41
2022-09-20T04:58:50.599Z,57.54
2022-09-20T05:01:37.362Z,57.55
2022-09-20T05:04:22.755Z,57.59
2022-09-20T05:07:03.166Z,57.65
2022-09-20T05:10:03.468Z,57.15
2022-09-20T05:13:08.629Z,57.60
2022-09-20T05:16:02.452Z,56.92
2022-09-20T05:18:44.838Z,57.16
2022-09-20T05:21:17.522Z,57.03
2022-09-20T05:24:12.599Z,57.32
2022-09-20T05:27:12.614Z,57.25
2022-09-20T05:29:39.111Z,57.29
2022-09-20T05:32:38.573Z,57.03
2022-09-20T05:35:20.823Z,57.41
2022-09-20T05:38:17.585Z,57.10
2022-09-20T05:41:09.279Z,57.26
2022-09-20T05:43:50.712Z,57.45
2022-09-20T05:46:50.419Z,57.54
2022-09-20T05:49:55.125Z,57.31
2022-09-20T05:52:51.565Z,57.37
2022-09-20T05:55:36.606Z,58.44
2022-09-20T05:58:40.193Z,56.39
2022-09-20T06:01:21.351Z,56.89
2022-09-20T06:03:59.256Z,56.56
2022-09-20T06:07:09.147Z,56.13
2022-09-20T06:10:00.249Z,57.05
2022-09-20T06:12:52.460Z,55.91
2022-09-20T06:15:56.316Z,56.36
2022-09-20T06:18:34.543Z,56.33
2022-09-20T06:21:25.892Z,56.20
2022-09-20T06:23:58.568Z,56.03
2022-09-20T06:26:27.873Z,56.05
2022-09-20T06:28:59.824Z,56.20
2022-09-20T06:31:27.380Z,56.70
2022-09-20T06:34:04.339Z,56.53
2022-09-20T06:36:52.553Z,56.85
2022-09-20T06:40:02.261Z,56.88
2022-09-20T06:42:29.606Z,56.90
2022-09-20T06:44:56.531Z,56.25
2022-09-20T06:47:23.445Z,56.96
2022-09-20T06:49:50.179Z,56.19
2022-09-20T06:52:18.745Z,56.63
2022-09-20T06:54:47.067Z,56.75
2022-09-20T06:57:19.770Z,56.58
2022-09-20T06:59:46.342Z,56.16
2022-09-20T07:02:12.912Z,55.85
2022-09-20T07:04:40.057Z,55.96
2022-09-20T07:07:09.596Z,56.43
2022-09-20T07:09:36.467Z,55.92
2022-09-20T07:12:03.156Z,55.69
2022-09-20T07:14:29.678Z,55.78
2022-09-20T07:16:56.203Z,56.60
2022-09-20T07:19:23.401Z,55.47
2022-09-20T07:21:50.050Z,55.82
2022-09-20T07:24:16.620Z,55.83
2022-09-20T07:27:04.978Z,56.37
2022-09-20T07:29:31.610Z,55.48
2022-09-20T07:31:58.765Z,56.30
2022-09-20T07:34:25.675Z,55.90
2022-09-20T07:36:52.354Z,56.38
2022-09-20T07:39:18.900Z,56.02
2022-09-20T07:41:51.134Z,55.51
2022-09-20T07:44:22.117Z,56.00
2022-09-20T07:46:53.046Z,56.13
2022-09-20T07:49:21.246Z,56.33
2022-09-20T07:51:49.128Z,56.17
2022-09-20T07:54:15.924Z,55.50
2022-09-20T07:56:43.433Z,55.82
2022-09-20T07:59:13.600Z,55.14
2022-09-20T08:01:41.207Z,55.73
2022-09-20T08:04:11.331Z,55.82
2022-09-20T08:06:42.794Z,54.86
2022-09-20T08:09:11.319Z,54.82
2022-09-20T08:11:39.632Z,55.39
2022-09-20T08:14:08.858Z,54.87
2022-09-20T08:16:41.466Z,54.38
2022-09-20T08:19:08.211Z,54.47
2022-09-20T08:21:37.957Z,54.11
2022-09-20T08:24:04.682Z,53.54
2022-09-20T08:26:31.671Z,53.23
2022-09-20T08:28:59.972Z,50.84
2022-09-20T08:31:31.445Z,49.85
2022-09-20T08:33:59.136Z,48.81
2022-09-20T08:36:27.090Z,47.89
2022-09-20T08:42:14.685Z,47.42
2022-09-20T08:45:00.014Z,46.97
2022-09-20T08:47:35.786Z,46.50
2022-09-20T08:50:09.965Z,45.48
2022-09-20T08:52:40.121Z,45.42
2022-09-20T08:55:36.405Z,46.53
2022-09-20T08:58:08.198Z,47.00
2022-09-20T09:00:37.137Z,45.32
2022-09-20T09:03:16.927Z,44.31
2022-09-20T09:05:46.657Z,42.84
2022-09-20T09:08:17.239Z,41.93
2022-09-20T09:10:56.736Z,42.97
2022-09-20T09:13:44.599Z,42.27
2022-09-20T09:16:15.003Z,40.75
2022-09-20T09:18:44.629Z,39.24
2022-09-20T09:21:29.906Z,38.25
2022-09-20T09:24:09.432Z,37.46
2022-09-20T09:26:38.801Z,36.46
2022-09-20T09:29:24.575Z,37.13
2022-09-20T09:31:54.683Z,41.93
2022-09-20T09:34:34.080Z,44.43
2022-09-20T09:37:00.987Z,45.57
2022-09-20T09:39:31.652Z,46.14
2022-09-20T09:42:02.172Z,46.93
2022-09-20T09:44:32.698Z,47.19
2022-09-20T09:46:59.960Z,47.67
2022-09-20T09:49:37.146Z,46.61
2022-09-20T09:52:24.690Z,45.62
2022-09-20T09:55:01.978Z,46.08
2022-09-20T09:57:54.246Z,47.05
2022-09-20T10:00:22.958Z,45.95
2022-09-20T10:03:05.942Z,40.56
2022-09-20T10:06:08.161Z,41.61
2022-09-20T10:09:12.283Z,37.59
2022-09-20T10:11:44.809Z,35.39
2022-09-20T10:14:20.379Z,33.01
2022-09-20T10:16:53.081Z,31.51
2022-09-20T10:19:24.791Z,30.86
2022-09-20T10:22:20.085Z,33.79
2022-09-20T10:25:00.823Z,39.62
2022-09-20T10:28:02.965Z,38.48
2022-09-20T10:30:56.896Z,43.33
2022-09-20T10:33:51.460Z,42.61
2022-09-20T10:36:45.469Z,41.08
2022-09-20T10:39:34.386Z,41.42
2022-09-20T10:43:00.840Z,41.14
2022-09-20T10:46:08.755Z,37.47
2022-09-20T10:48:53.188Z,38.21
2022-09-20T10:51:44.503Z,41.82
2022-09-20T10:54:32.485Z,44.78
2022-09-20T10:57:46.456Z,45.48
2022-09-20T11:00:37.405Z,46.50
2022-09-20T11:03:49.378Z,46.58
2022-09-20T11:06:24.666Z,46.35
2022-09-20T11:08:56.349Z,46.63
2022-09-20T11:11:28.668Z,46.84
2022-09-20T11:14:10.998Z,47.09
2022-09-20T11:16:46.029Z,46.85
2022-09-20T11:19:26.716Z,46.62
2022-09-20T11:22:01.226Z,46.47
2022-09-20T11:24:36.193Z,46.71
2022-09-20T11:27:08.226Z,46.96
2022-09-20T11:29:46.677Z,46.99
2022-09-20T11:32:53.122Z,45.50
2022-09-20T11:35:46.188Z,40.37
2022-09-20T11:38:52.891Z,41.01
2022-09-20T11:41:31.001Z,37.05
2022-09-20T11:44:06.977Z,36.79
2022-09-20T11:46:50.387Z,32.62
2022-09-20T11:49:39.851Z,32.61
2022-09-20T11:52:17.465Z,40.47
2022-09-20T11:54:59.356Z,43.91
2022-09-20T11:57:26.247Z,45.14
2022-09-20T11:59:56.671Z,46.38
2022-09-20T12:02:35.615Z,46.76
2022-09-20T12:05:06.381Z,47.73
2022-09-20T12:07:41.146Z,48.16
2022-09-20T12:10:24.942Z,48.67
2022-09-20T12:13:04.396Z,48.83
2022-09-20T12:15:35.346Z,49.03
2022-09-20T12:18:09.417Z,49.86
2022-09-20T12:20:36.228Z,49.32
2022-09-20T12:23:42.859Z,49.82
2022-09-20T12:26:21.601Z,50.09
2022-09-20T12:28:55.317Z,50.13
2022-09-20T12:31:21.896Z,49.17
2022-09-20T12:34:03.627Z,49.53
2022-09-20T12:36:36.255Z,49.33
2022-09-20T12:39:12.064Z,50.12
2022-09-20T12:41:50.989Z,49.46
2022-09-20T12:44:40.852Z,49.32
2022-09-20T12:47:10.350Z,49.87
2022-09-20T12:50:04.326Z,50.13
2022-09-20T12:52:58.003Z,49.32
2022-09-20T12:55:32.013Z,49.77
2022-09-20T12:58:01.991Z,48.76
2022-09-20T13:00:55.471Z,47.97
2022-09-20T13:03:29.445Z,47.84
2022-09-20T13:06:14.837Z,46.33
2022-09-20T13:09:09.285Z,45.61
2022-09-20T13:11:45.737Z,44.67
2022-09-20T13:14:18.383Z,44.54
2022-09-20T13:17:06.291Z,43.40
2022-09-20T13:19:38.965Z,43.67
2022-09-20T13:22:25.950Z,43.14
2022-09-20T13:25:00.834Z,43.56
2022-09-20T13:27:34.568Z,43.83
2022-09-20T13:30:21.375Z,44.39
2022-09-20T13:32:49.161Z,44.49
2022-09-20T13:35:23.537Z,43.77
2022-09-20T13:37:54.919Z,42.69
2022-09-20T13:40:23.365Z,42.53
2022-09-20T13:42:52.438Z,42.09
2022-09-20T13:45:22.105Z,41.76
2022-09-20T13:47:51.981Z,41.47
2022-09-20T13:50:18.744Z,40.64
2022-09-20T13:52:53.174Z,41.30
2022-09-20T13:55:27.506Z,40.57
2022-09-20T13:57:56.823Z,41.00
2022-09-20T14:00:27.623Z,40.78
2022-09-20T14:02:55.033Z,40.39
2022-09-20T14:05:26.075Z,40.38
2022-09-20T14:07:54.329Z,40.15
2022-09-20T14:10:27.260Z,39.64
2022-09-20T14:12:54.883Z,40.10
2022-09-20T14:15:22.177Z,40.14
2022-09-20T14:17:52.085Z,40.79
2022-09-20T14:20:18.842Z,40.41
2022-09-20T14:22:45.703Z,40.73
2022-09-20T14:25:12.429Z,41.42
2022-09-20T14:27:39.078Z,41.71
2022-09-20T14:30:07.393Z,41.68
2022-09-20T14:32:50.723Z,42.53
2022-09-20T14:35:20.366Z,43.21
2022-09-20T14:37:53.732Z,44.06
2022-09-20T14:40:29.217Z,44.25
2022-09-20T14:43:01.176Z,45.00
2022-09-20T14:45:40.223Z,45.15
2022-09-20T14:48:26.704Z,45.55
2022-09-20T14:51:28.614Z,45.79
2022-09-20T14:54:03.958Z,45.36
2022-09-20T14:56:39.422Z,46.16
2022-09-20T14:59:19.295Z,46.33
2022-09-20T15:02:00.646Z,46.76
2022-09-20T15:04:32.683Z,46.82
2022-09-20T15:07:05.064Z,46.60
2022-09-20T15:09:31.700Z,46.47
2022-09-20T15:12:15.401Z,46.92
2022-09-20T15:14:42.309Z,47.15
2022-09-20T15:17:26.703Z,46.53
2022-09-20T15:19:53.752Z,46.76
2022-09-20T15:22:20.694Z,46.84
2022-09-20T15:24:47.439Z,47.50
2022-09-20T15:27:14.424Z,47.60
2022-09-20T15:29:41.160Z,47.88
2022-09-20T15:32:10.437Z,47.85
2022-09-20T15:34:36.985Z,47.60
2022-09-20T15:37:03.558Z,46.90
2022-09-20T15:39:30.203Z,46.36
2022-09-20T15:41:57.168Z,46.65
2022-09-20T15:44:23.669Z,46.30
2022-09-20T15:46:51.365Z,46.75
2022-09-20T15:49:17.890Z,46.49
2022-09-20T15:51:45.266Z,46.84
2022-09-20T15:54:14.077Z,46.89
2022-09-20T15:56:41.494Z,46.97
2022-09-20T15:59:10.737Z,47.50
2022-09-20T16:01:42.227Z,47.42
2022-09-20T16:04:12.384Z,47.99
2022-09-20T16:06:40.989Z,48.14
2022-09-20T16:09:08.331Z,48.01
2022-09-20T16:11:35.760Z,47.90
2022-09-20T16:14:02.766Z,48.29
2022-09-20T16:16:33.167Z,48.12
2022-09-20T16:19:20.527Z,48.42
2022-09-20T16:21:58.908Z,48.84
2022-09-20T16:24:28.258Z,49.06
2022-09-20T16:26:55.112Z,48.81
2022-09-20T16:29:25.988Z,49.16
2022-09-20T16:31:54.422Z,48.95
2022-09-20T16:34:22.546Z,50.55
2022-09-20T16:36:51.215Z,51.59
2022-09-20T16:39:19.394Z,52.46
2022-09-20T16:41:48.191Z,51.79
2022-09-20T16:44:15.244Z,50.68
2022-09-20T16:46:41.838Z,50.44
2022-09-20T16:49:11.586Z,51.14
2022-09-20T16:51:40.638Z,50.26
2022-09-20T16:54:12.555Z,50.26
2022-09-20T16:56:48.049Z,50.38
2022-09-20T16:59:16.359Z,51.11
2022-09-20T17:01:43.976Z,50.98
2022-09-20T17:04:14.052Z,51.47
2022-09-20T17:06:43.393Z,51.05
2022-09-20T17:09:11.056Z,51.26
2022-09-20T17:11:40.299Z,50.94
2022-09-20T17:14:07.903Z,51.61
2022-09-20T17:16:36.968Z,51.53
2022-09-20T17:19:09.443Z,52.08
2022-09-20T17:21:44.709Z,52.16
2022-09-20T17:24:11.636Z,51.98
2022-09-20T17:26:40.870Z,51.96
2022-09-20T17:29:10.278Z,53.05
2022-09-20T17:31:41.576Z,53.14
2022-09-20T17:34:11.013Z,53.58
2022-09-20T17:36:45.967Z,54.59
2022-09-20T17:39:14.111Z,54.22
2022-09-20T17:41:42.810Z,54.46
2022-09-20T17:44:10.170Z,55.38
2022-09-20T17:46:41.547Z,55.06
2022-09-20T17:49:10.646Z,54.58
2022-09-20T17:51:45.640Z,55.41
2022-09-20T17:54:13.975Z,54.57
2022-09-20T17:56:46.405Z,55.69
2022-09-20T17:59:16.118Z,54.87
2022-09-20T18:01:44.582Z,54.76
2022-09-20T18:04:11.528Z,55.74
2022-09-20T18:06:43.288Z,55.62
2022-09-20T18:09:13.795Z,55.11
2022-09-20T18:11:41.676Z,55.37
2022-09-20T18:14:13.434Z,55.42
2022-09-20T18:16:40.410Z,54.57
2022-09-20T18:19:08.560Z,54.70
2022-09-20T18:21:36.761Z,55.22
2022-09-20T18:24:08.010Z,55.53
2022-09-20T18:26:35.352Z,55.53
2022-09-20T18:29:05.201Z,55.64
2022-09-20T18:31:37.378Z,55.47
2022-09-20T18:34:06.547Z,55.61
2022-09-20T18:36:36.108Z,55.48
2022-09-20T18:39:03.142Z,54.53
2022-09-20T18:41:34.424Z,54.60
2022-09-20T18:44:03.971Z,54.97
2022-09-20T18:46:31.383Z,55.13
2022-09-20T18:49:05.033Z,54.87
2022-09-20T18:51:35.874Z,55.42
2022-09-20T18:54:05.790Z,55.13
2022-09-20T18:56:34.620Z,54.90
2022-09-20T18:59:06.624Z,55.77
2022-09-20T19:01:54.642Z,55.69
2022-09-20T19:04:29.794Z,55.30
2022-09-20T19:07:21.157Z,55.32
2022-09-20T19:10:06.001Z,55.76
2022-09-20T19:12:53.754Z,55.59
2022-09-20T19:15:23.326Z,55.83
2022-09-20T19:18:18.351Z,54.75
2022-09-20T19:20:54.147Z,54.93
2022-09-20T19:23:45.172Z,55.72
2022-09-20T19:26:25.261Z,55.83
2022-09-20T19:28:55.128Z,55.89
2022-09-20T19:31:26.062Z,55.14
2022-09-20T19:33:57.044Z,55.26
2022-09-20T19:36:39.877Z,55.75
2022-09-20T19:39:06.503Z,55.35
2022-09-20T19:41:51.006Z,56.05
2022-09-20T19:44:18.304Z,56.07
2022-09-20T19:46:47.644Z,56.34
2022-09-20T19:49:18.535Z,55.70
2022-09-20T19:51:45.508Z,56.29
2022-09-20T19:54:14.919Z,55.58
2022-09-20T19:56:52.880Z,55.92
2022-09-20T19:59:21.625Z,55.74
2022-09-20T20:01:48.391Z,55.46
2022-09-20T20:04:15.333Z,56.20
2022-09-20T20:07:17.084Z,55.82
2022-09-20T20:10:11.984Z,56.00
2022-09-20T20:12:57.644Z,56.44
2022-09-20T20:15:36.166Z,56.74
2022-09-20T20:18:35.479Z,56.66
2022-09-20T20:21:08.784Z,56.38
2022-09-20T20:23:56.628Z,56.37
2022-09-20T20:26:25.528Z,56.82
2022-09-20T20:28:52.923Z,56.27
2022-09-20T20:31:20.894Z,57.18
2022-09-20T20:33:47.637Z,56.88
2022-09-20T20:36:14.236Z,56.40
2022-09-20T20:38:43.439Z,56.56
2022-09-20T20:41:13.129Z,56.58
2022-09-20T20:43:42.049Z,56.55
2022-09-20T20:46:11.097Z,56.49
2022-09-20T20:48:37.998Z,56.26
2022-09-20T20:51:05.789Z,56.04
2022-09-20T20:53:34.838Z,56.14
2022-09-20T20:56:09.761Z,56.10
2022-09-20T20:58:40.711Z,55.81
2022-09-20T21:01:22.301Z,56.38
2022-09-20T21:03:52.341Z,56.25
2022-09-20T21:06:20.698Z,56.41
2022-09-20T21:08:49.768Z,56.82
2022-09-20T21:11:23.422Z,56.78
2022-09-20T21:13:54.609Z,56.61
2022-09-20T21:16:27.041Z,56.58
2022-09-20T21:18:53.822Z,55.78
2022-09-20T21:21:22.815Z,56.61
2022-09-20T21:23:51.661Z,56.87
2022-09-20T21:26:19.537Z,56.10
2022-09-20T21:28:53.850Z,56.37
2022-09-20T21:31:22.399Z,55.83
2022-09-20T21:33:49.441Z,56.58
2022-09-20T21:36:18.357Z,56.79
2022-09-20T21:38:45.969Z,55.76
2022-09-20T21:41:17.680Z,56.81
2022-09-20T21:43:46.053Z,56.77
2022-09-20T21:46:17.652Z,56.63
2022-09-20T21:48:45.082Z,56.81
2022-09-20T21:51:13.988Z,56.34
2022-09-20T21:53:40.977Z,56.56
2022-09-20T21:56:09.774Z,56.88
2022-09-20T21:58:39.972Z,56.69
2022-09-20T22:01:11.301Z,56.24
2022-09-20T22:03:43.150Z,56.10
2022-09-20T22:06:20.893Z,56.15
2022-09-20T22:08:52.244Z,56.15
2022-09-20T22:11:21.297Z,56.92
2022-09-20T22:13:52.765Z,56.94
2022-09-20T22:16:24.483Z,56.07
2022-09-20T22:18:52.124Z,56.16
2022-09-20T22:21:22.034Z,56.99
2022-09-20T22:24:00.777Z,56.81
2022-09-20T22:26:32.380Z,55.64
2022-09-20T22:28:59.226Z,56.81
2022-09-20T22:31:28.226Z,56.66
2022-09-20T22:33:57.379Z,56.00
2022-09-20T22:36:30.041Z,56.72
2022-09-20T22:38:56.888Z,56.23
2022-09-20T22:41:24.050Z,56.63
2022-09-20T22:43:50.659Z,56.22
2022-09-20T22:46:19.581Z,57.12
2022-09-20T22:48:46.610Z,56.12
2022-09-20T22:51:18.658Z,56.11
2022-09-20T22:53:46.539Z,57.02
2022-09-20T22:56:21.636Z,56.19
2022-09-20T22:58:53.812Z,56.89
2022-09-20T23:01:23.664Z,57.11
2022-09-20T23:03:56.355Z,56.68
2022-09-20T23:06:25.923Z,56.64
2022-09-20T23:08:55.263Z,56.44
2022-09-20T23:11:22.598Z,57.04
2022-09-20T23:13:53.874Z,56.50
2022-09-20T23:16:23.121Z,56.66
2022-09-20T23:18:51.074Z,56.42
2022-09-20T23:21:18.462Z,57.27
2022-09-20T23:23:45.887Z,57.13
2022-09-20T23:26:14.886Z,57.50
2022-09-20T23:28:44.248Z,56.73
2022-09-20T23:31:13.089Z,57.53
2022-09-20T23:33:43.553Z,56.58
2022-09-20T23:36:12.597Z,56.73
2022-09-20T23:38:39.160Z,56.78
2022-09-20T23:41:11.795Z,56.68
2022-09-20T23:43:38.675Z,57.38
2022-09-20T23:46:06.395Z,56.70
2022-09-20T23:48:33.470Z,56.52
2022-09-20T23:51:00.042Z,56.92
2022-09-20T23:53:26.598Z,57.62
2022-09-20T23:55:53.092Z,56.68
2022-09-20T23:58:19.646Z,57.72
